Time;durP1;ratioP1;P1;durP2;ratioP2;P2;SDS_P1;SDS_P2;PMS_P1;PMS_P2;Temp;Humidity;BMP_temperature;BMP_pressure;BME280_temperature;BME280_humidity;BME280_pressure;Samples;Min_cycle;Max_cycle;Signal;HPM_P1;HPM_P2
2020/12/13 00:00:04;;;;;;;;;;;23.90;87.70;;;;;;1808555;79;20506;-78
2020/12/13 00:02:24;;;;;;;;;;;23.90;87.50;;;;;;1808150;78;20334;-78
2020/12/13 00:04:59;;;;;;;;;;;24.00;88.20;;;;;;1770360;77;20231;-78
2020/12/13 00:07:29;;;;;;;;;;;24.00;87.60;;;;;;1808496;79;20177;-79
2020/12/13 00:10:00;;;;;;;;;;;24.00;86.90;;;;;;1803532;79;20200;-79
2020/12/13 00:12:33;;;;;;;;;;;24.10;86.50;;;;;;1807123;79;20212;-78
2020/12/13 00:15:02;;;;;;;;;;;24.10;85.70;;;;;;1808031;79;20244;-80
2020/12/13 00:17:33;;;;;;;;;;;24.10;85.30;;;;;;1792865;79;20460;-78
2020/12/13 00:20:03;;;;;;;;;;;24.20;85.50;;;;;;1814160;78;20248;-78
2020/12/13 00:22:35;;;;;;;;;;;24.20;85.40;;;;;;1793907;79;20267;-79
2020/12/13 00:25:04;;;;;;;;;;;24.30;84.90;;;;;;1760220;81;20127;-79
2020/12/13 00:27:34;;;;;;;;;;;24.30;84.60;;;;;;1756467;81;20131;-80
2020/12/13 00:30:04;;;;;;;;;;;24.40;84.60;;;;;;1799612;79;20210;-79
2020/12/13 00:32:36;;;;;;;;;;;24.40;84.40;;;;;;1793783;79;20326;-79
2020/12/13 00:35:05;;;;;;;;;;;24.40;84.30;;;;;;1783617;77;20212;-79
2020/12/13 00:37:36;;;;;;;;;;;24.40;84.30;;;;;;1787409;79;20262;-79
2020/12/13 00:40:06;;;;;;;;;;;24.50;84.20;;;;;;1801103;77;20189;-79
2020/12/13 00:42:36;;;;;;;;;;;24.50;84.00;;;;;;1805636;79;20463;-79
2020/12/13 00:45:10;;;;;;;;;;;24.60;83.70;;;;;;1780483;80;20174;-79
2020/12/13 00:47:38;;;;;;;;;;;24.60;83.70;;;;;;1773545;80;20144;-78
2020/12/13 00:50:09;;;;;;;;;;;24.60;84.10;;;;;;1789547;78;20478;-78
2020/12/13 00:52:42;;;;;;;;;;;24.60;82.70;;;;;;1791830;79;20235;-78
2020/12/13 00:55:11;;;;;;;;;;;24.60;82.50;;;;;;1800049;79;20518;-78
2020/12/13 00:57:42;;;;;;;;;;;24.60;82.80;;;;;;1801730;79;20227;-78
2020/12/13 01:00:12;;;;;;;;;;;24.70;82.90;;;;;;1786473;79;20563;-78
2020/12/13 01:02:41;;;;;;;;;;;24.70;82.60;;;;;;1800454;79;20257;-78
2020/12/13 01:05:11;;;;;;;;;;;24.80;82.30;;;;;;1796366;79;20263;-78
2020/12/13 01:07:42;;;;;;;;;;;24.90;82.40;;;;;;1804692;79;20196;-77
2020/12/13 01:10:13;;;;;;;;;;;24.90;82.10;;;;;;1812192;79;20164;-78
2020/12/13 01:12:43;;;;;;;;;;;25.00;82.10;;;;;;1809339;77;20223;-78
2020/12/13 01:15:12;;;;;;;;;;;25.00;82.20;;;;;;1816010;77;20164;-78
2020/12/13 01:17:43;;;;;;;;;;;25.20;82.00;;;;;;1802419;79;20153;-79
2020/12/13 01:20:14;;;;;;;;;;;25.20;80.90;;;;;;1809636;79;20210;-79
2020/12/13 01:22:44;;;;;;;;;;;25.30;80.30;;;;;;1811386;77;20208;-79
2020/12/13 01:25:14;;;;;;;;;;;25.30;80.30;;;;;;1790756;79;20500;-79
2020/12/13 01:27:44;;;;;;;;;;;25.40;80.10;;;;;;1811741;79;20499;-79
2020/12/13 01:30:14;;;;;;;;;;;25.40;80.50;;;;;;1809480;79;20225;-79
2020/12/13 01:32:45;;;;;;;;;;;25.50;80.60;;;;;;1788924;79;20299;-80
2020/12/13 01:35:15;;;;;;;;;;;25.50;80.70;;;;;;1784465;79;20316;-78
2020/12/13 01:37:45;;;;;;;;;;;25.60;79.70;;;;;;1803927;79;20247;-79
2020/12/13 01:40:15;;;;;;;;;;;25.70;80.00;;;;;;1810847;79;20164;-79
2020/12/13 01:42:45;;;;;;;;;;;25.70;79.90;;;;;;1810562;79;20207;-79
2020/12/13 01:45:18;;;;;;;;;;;25.70;79.60;;;;;;1806258;79;20213;-79
2020/12/13 01:47:50;;;;;;;;;;;25.80;79.30;;;;;;1812611;77;20197;-79
2020/12/13 01:50:38;;;;;;;;;;;25.80;80.10;;;;;;1809696;79;20239;-79
2020/12/13 01:52:51;;;;;;;;;;;25.80;80.00;;;;;;1803480;77;20412;-79
2020/12/13 01:55:21;;;;;;;;;;;25.90;79.90;;;;;;1809912;79;20172;-79
2020/12/13 01:57:52;;;;;;;;;;;25.90;79.60;;;;;;1804551;79;20246;-78
2020/12/13 02:00:23;;;;;;;;;;;26.00;79.60;;;;;;1812090;79;20618;-79
2020/12/13 02:02:54;;;;;;;;;;;26.00;79.70;;;;;;1811359;79;20267;-78
2020/12/13 02:05:24;;;;;;;;;;;26.00;79.50;;;;;;1806818;79;20241;-81
2020/12/13 02:07:55;;;;;;;;;;;26.10;79.40;;;;;;1793115;79;20202;-79
2020/12/13 02:10:25;;;;;;;;;;;26.20;79.70;;;;;;1802309;79;20246;-79
2020/12/13 02:12:55;;;;;;;;;;;26.20;78.60;;;;;;1805761;77;20557;-79
2020/12/13 02:15:25;;;;;;;;;;;26.30;78.00;;;;;;1804132;79;20209;-82
2020/12/13 02:17:55;;;;;;;;;;;26.30;78.00;;;;;;1799939;79;20186;-79
2020/12/13 02:20:26;;;;;;;;;;;26.40;78.10;;;;;;1777488;80;20188;-79
2020/12/13 02:23:32;;;;;;;;;;;26.40;77.60;;;;;;1745755;81;20466;-80
2020/12/13 02:25:47;;;;;;;;;;;26.50;77.60;;;;;;1772114;79;20188;-80
2020/12/13 02:28:18;;;;;;;;;;;26.50;77.50;;;;;;1788291;80;20139;-82
2020/12/13 02:30:48;;;;;;;;;;;26.60;77.30;;;;;;1780775;80;20185;-81
2020/12/13 02:33:18;;;;;;;;;;;26.60;77.50;;;;;;1760041;81;20171;-80
2020/12/13 02:35:49;;;;;;;;;;;26.60;77.40;;;;;;1767082;79;20527;-80
2020/12/13 02:38:28;;;;;;;;;;;26.60;77.30;;;;;;1792492;79;20564;-80
2020/12/13 02:40:59;;;;;;;;;;;26.70;77.60;;;;;;1754896;79;20212;-80
2020/12/13 02:43:34;;;;;;;;;;;26.70;77.60;;;;;;1790850;79;20238;-82
2020/12/13 02:46:03;;;;;;;;;;;26.80;77.20;;;;;;1788406;79;20219;-82
2020/12/13 02:48:33;;;;;;;;;;;26.80;77.20;;;;;;1765618;79;20140;-81
2020/12/13 02:51:05;;;;;;;;;;;26.80;76.70;;;;;;1795581;79;20191;-79
2020/12/13 02:53:35;;;;;;;;;;;26.90;76.50;;;;;;1798485;79;20525;-80
2020/12/13 02:56:04;;;;;;;;;;;26.90;76.40;;;;;;1759882;79;20490;-79
2020/12/13 02:58:35;;;;;;;;;;;27.00;76.30;;;;;;1788296;79;20268;-79
2020/12/13 03:01:05;;;;;;;;;;;27.00;76.10;;;;;;1759983;79;20140;-79
2020/12/13 03:03:35;;;;;;;;;;;27.10;76.10;;;;;;1794903;79;20220;-79
2020/12/13 03:06:05;;;;;;;;;;;27.20;75.60;;;;;;1785007;79;20194;-79
2020/12/13 03:08:34;;;;;;;;;;;27.20;75.20;;;;;;1789130;79;20521;-80
2020/12/13 03:11:04;;;;;;;;;;;27.20;75.30;;;;;;1761861;79;20202;-79
2020/12/13 03:13:34;;;;;;;;;;;27.30;74.80;;;;;;1797579;79;20167;-79
2020/12/13 03:16:04;;;;;;;;;;;27.40;73.40;;;;;;1768232;79;20226;-81
2020/12/13 03:18:35;;;;;;;;;;;27.50;74.20;;;;;;1796725;79;20729;-81
2020/12/13 03:21:04;;;;;;;;;;;27.50;73.80;;;;;;1805170;77;20215;-80
2020/12/13 03:23:37;;;;;;;;;;;27.60;73.10;;;;;;1804889;78;20164;-81
2020/12/13 03:26:10;;;;;;;;;;;27.70;73.90;;;;;;1808301;79;20176;-81
2020/12/13 03:28:40;;;;;;;;;;;27.80;73.30;;;;;;1801901;79;20219;-81
2020/12/13 03:31:10;;;;;;;;;;;27.80;71.50;;;;;;1804922;79;20385;-81
2020/12/13 03:33:55;;;;;;;;;;;27.90;71.70;;;;;;1806163;79;20160;-79
2020/12/13 03:36:22;;;;;;;;;;;28.00;72.40;;;;;;1811545;79;20213;-80
2020/12/13 03:38:53;;;;;;;;;;;28.10;72.60;;;;;;1808821;79;20196;-80
2020/12/13 03:41:23;;;;;;;;;;;28.10;71.90;;;;;;1803189;79;20173;-80
2020/12/13 03:43:53;;;;;;;;;;;28.20;70.90;;;;;;1817874;77;20246;-81
2020/12/13 03:46:22;;;;;;;;;;;28.30;71.30;;;;;;1818610;77;20168;-80
2020/12/13 03:48:53;;;;;;;;;;;28.40;70.80;;;;;;1808216;79;20212;-80
2020/12/13 03:51:23;;;;;;;;;;;28.50;71.10;;;;;;1804820;77;20500;-80
2020/12/13 03:53:53;;;;;;;;;;;28.50;70.80;;;;;;1808690;77;20197;-80
2020/12/13 03:56:22;;;;;;;;;;;28.60;70.40;;;;;;1803803;79;20503;-79
2020/12/13 03:58:58;;;;;;;;;;;28.70;70.00;;;;;;1806024;79;20424;-79
2020/12/13 04:01:25;;;;;;;;;;;28.80;69.50;;;;;;1819343;77;20219;-82
2020/12/13 04:03:54;;;;;;;;;;;28.80;70.20;;;;;;1819872;77;20231;-80
2020/12/13 04:06:30;;;;;;;;;;;29.00;70.40;;;;;;1819947;77;20517;-79
2020/12/13 04:08:59;;;;;;;;;;;29.00;69.60;;;;;;1809695;77;20185;-80
2020/12/13 04:11:31;;;;;;;;;;;29.00;68.10;;;;;;1813821;77;20202;-81
2020/12/13 04:14:01;;;;;;;;;;;29.10;69.20;;;;;;1810058;77;20177;-80
2020/12/13 04:16:36;;;;;;;;;;;29.20;69.10;;;;;;1811570;77;20177;-80
2020/12/13 04:19:05;;;;;;;;;;;29.30;69.20;;;;;;1811921;77;20290;-80
2020/12/13 04:21:35;;;;;;;;;;;29.30;68.60;;;;;;1818651;79;20254;-80
2020/12/13 04:24:05;;;;;;;;;;;29.40;68.00;;;;;;1795360;77;20185;-80
2020/12/13 04:26:35;;;;;;;;;;;29.60;67.70;;;;;;1793389;77;20487;-81
2020/12/13 04:29:06;;;;;;;;;;;29.60;68.00;;;;;;1795307;78;20243;-80
2020/12/13 04:31:37;;;;;;;;;;;29.70;68.00;;;;;;1819285;77;20252;-80
2020/12/13 04:34:10;;;;;;;;;;;29.70;67.60;;;;;;1815707;77;20278;-80
2020/12/13 04:36:43;;;;;;;;;;;29.80;67.20;;;;;;1825078;77;20237;-80
2020/12/13 04:39:12;;;;;;;;;;;29.90;63.50;;;;;;1831477;77;20233;-79
2020/12/13 04:41:42;;;;;;;;;;;29.90;63.40;;;;;;1844670;76;20311;-79
2020/12/13 04:44:20;;;;;;;;;;;30.00;63.70;;;;;;1841473;77;20202;-79
2020/12/13 04:46:59;;;;;;;;;;;30.00;65.20;;;;;;1837705;76;20528;-80
2020/12/13 04:49:47;;;;;;;;;;;30.10;65.50;;;;;;1751780;81;20186;-80
2020/12/13 04:52:22;;;;;;;;;;;30.20;65.30;;;;;;1752460;80;20262;-80
2020/12/13 04:54:51;;;;;;;;;;;30.30;64.40;;;;;;1750854;81;20406;-80
2020/12/13 04:57:22;;;;;;;;;;;30.40;64.00;;;;;;1751980;81;20267;-79
2020/12/13 04:59:52;;;;;;;;;;;30.40;61.00;;;;;;1757749;81;20315;-79
2020/12/13 05:02:24;;;;;;;;;;;30.50;61.20;;;;;;1756883;81;20208;-80
2020/12/13 05:04:56;;;;;;;;;;;30.60;62.80;;;;;;1760267;81;20298;-79
2020/12/13 05:07:26;;;;;;;;;;;30.70;60.40;;;;;;1763681;80;20276;-79
2020/12/13 05:09:57;;;;;;;;;;;30.70;60.00;;;;;;1756700;81;20235;-80
2020/12/13 05:12:30;;;;;;;;;;;30.80;59.60;;;;;;1757333;80;20242;-80
2020/12/13 05:15:04;;;;;;;;;;;30.90;60.10;;;;;;1749768;81;20291;-80
2020/12/13 05:17:35;;;;;;;;;;;31.00;59.00;;;;;;1748409;81;20211;-81
2020/12/13 05:20:06;;;;;;;;;;;31.00;58.90;;;;;;1772330;77;20293;-80
2020/12/13 05:22:46;;;;;;;;;;;31.10;58.80;;;;;;1835271;76;20268;-80
2020/12/13 05:25:18;;;;;;;;;;;31.10;59.10;;;;;;1838197;77;20225;-80
2020/12/13 05:27:46;;;;;;;;;;;31.20;59.70;;;;;;1840608;77;20227;-80
2020/12/13 05:30:17;;;;;;;;;;;31.30;58.50;;;;;;1840464;76;20474;-81
2020/12/13 05:32:47;;;;;;;;;;;31.40;57.60;;;;;;1836843;77;20268;-80
2020/12/13 05:35:18;;;;;;;;;;;31.40;57.70;;;;;;1831233;77;20211;-81
2020/12/13 05:37:48;;;;;;;;;;;31.50;58.70;;;;;;1838477;77;20285;-81
2020/12/13 05:40:19;;;;;;;;;;;31.60;59.10;;;;;;1841939;77;20591;-81
2020/12/13 05:43:05;;;;;;;;;;;31.60;59.10;;;;;;1841345;77;20255;-81
2020/12/13 05:45:57;;;;;;;;;;;31.70;58.70;;;;;;1827923;77;20223;-80
2020/12/13 05:50:54;;;;;;;;;;;31.70;56.70;;;;;;1837224;76;20652;-81
2020/12/13 05:53:04;;;;;;;;;;;31.60;56.90;;;;;;1838125;76;20653;-81
2020/12/13 05:55:34;;;;;;;;;;;31.60;56.70;;;;;;1843817;77;20264;-79
2020/12/13 05:58:04;;;;;;;;;;;31.60;56.70;;;;;;1835292;77;20114;-79
2020/12/13 06:00:34;;;;;;;;;;;31.60;56.80;;;;;;1795061;79;20240;-80
2020/12/13 06:03:06;;;;;;;;;;;31.60;56.20;;;;;;1788801;79;20317;-81
2020/12/13 06:05:36;;;;;;;;;;;31.70;56.40;;;;;;1846623;77;20248;-81
2020/12/13 06:08:09;;;;;;;;;;;31.80;55.90;;;;;;1820962;78;20213;-80
2020/12/13 06:10:40;;;;;;;;;;;31.80;55.30;;;;;;1828384;78;20184;-80
2020/12/13 06:13:14;;;;;;;;;;;31.60;55.60;;;;;;1837161;77;20476;-82
2020/12/13 06:15:45;;;;;;;;;;;31.50;55.80;;;;;;1844274;77;20170;-80
2020/12/13 06:18:16;;;;;;;;;;;31.40;55.60;;;;;;1833846;77;20208;-81
2020/12/13 06:20:46;;;;;;;;;;;31.40;56.10;;;;;;1827975;77;20194;-80
2020/12/13 06:23:19;;;;;;;;;;;31.40;56.40;;;;;;1830159;78;20219;-81
2020/12/13 06:25:50;;;;;;;;;;;31.40;56.20;;;;;;1828710;76;20196;-80
2020/12/13 06:28:19;;;;;;;;;;;31.50;55.70;;;;;;1825263;78;20206;-80
2020/12/13 06:30:49;;;;;;;;;;;31.60;56.30;;;;;;1829704;78;20298;-80
2020/12/13 06:33:23;;;;;;;;;;;31.60;55.70;;;;;;1824656;78;20219;-79
2020/12/13 06:35:58;;;;;;;;;;;31.70;55.50;;;;;;1830097;78;20297;-80
2020/12/13 06:38:30;;;;;;;;;;;31.80;55.90;;;;;;1829617;78;20179;-81
2020/12/13 06:41:03;;;;;;;;;;;31.80;55.30;;;;;;1740104;81;20229;-79
2020/12/13 06:43:37;;;;;;;;;;;31.80;55.20;;;;;;1777671;79;20207;-79
2020/12/13 06:46:08;;;;;;;;;;;31.90;55.00;;;;;;1786052;80;20185;-80
2020/12/13 06:48:44;;;;;;;;;;;31.90;54.40;;;;;;1766395;79;20238;-79
2020/12/13 06:51:20;;;;;;;;;;;31.90;54.40;;;;;;1803061;78;20170;-80
2020/12/13 06:53:51;;;;;;;;;;;31.80;54.70;;;;;;1826874;77;20469;-81
2020/12/13 06:56:23;;;;;;;;;;;31.80;54.30;;;;;;1834913;76;20174;-81
2020/12/13 06:59:01;;;;;;;;;;;31.80;54.60;;;;;;1831364;77;20225;-80
2020/12/13 07:01:32;;;;;;;;;;;31.80;54.20;;;;;;1828207;78;20250;-80
2020/12/13 07:04:02;;;;;;;;;;;31.70;54.50;;;;;;1832094;78;20501;-81
2020/12/13 07:06:33;;;;;;;;;;;31.80;54.70;;;;;;1824877;78;20119;-80
2020/12/13 07:09:07;;;;;;;;;;;31.80;55.30;;;;;;1832399;78;20136;-80
2020/12/13 07:11:42;;;;;;;;;;;31.90;55.00;;;;;;1823499;76;20574;-80
2020/12/13 07:14:14;;;;;;;;;;;31.90;52.90;;;;;;1832389;76;20268;-80
2020/12/13 07:16:49;;;;;;;;;;;31.80;53.10;;;;;;1829461;78;20132;-80
2020/12/13 07:19:20;;;;;;;;;;;31.80;53.20;;;;;;1832763;78;20453;-80
2020/12/13 07:21:50;;;;;;;;;;;31.80;53.90;;;;;;1826055;77;20226;-80
2020/12/13 07:24:21;;;;;;;;;;;31.80;53.70;;;;;;1826968;78;20123;-83
2020/12/13 07:26:51;;;;;;;;;;;31.90;54.60;;;;;;1832034;77;20123;-81
2020/12/13 07:29:32;;;;;;;;;;;31.90;54.70;;;;;;1830492;78;20174;-82
2020/12/13 07:32:08;;;;;;;;;;;32.00;54.70;;;;;;1832514;76;20227;-82
2020/12/13 07:34:44;;;;;;;;;;;32.00;53.90;;;;;;1827543;77;20209;-83
2020/12/13 07:37:17;;;;;;;;;;;32.00;53.70;;;;;;1825025;78;20195;-82
2020/12/13 07:39:53;;;;;;;;;;;32.00;54.00;;;;;;1827686;78;20169;-82
2020/12/13 07:42:21;;;;;;;;;;;32.00;53.90;;;;;;1833154;76;20465;-82
2020/12/13 07:44:52;;;;;;;;;;;32.00;54.20;;;;;;1829440;78;20156;-82
2020/12/13 07:47:22;;;;;;;;;;;31.90;54.50;;;;;;1825371;76;20133;-83
2020/12/13 07:49:52;;;;;;;;;;;31.80;54.40;;;;;;1841237;78;20135;-84
2020/12/13 07:52:21;;;;;;;;;;;31.80;54.60;;;;;;1833936;78;20188;-83
2020/12/13 07:54:51;;;;;;;;;;;31.70;54.50;;;;;;1832544;78;20260;-82
2020/12/13 07:57:21;;;;;;;;;;;31.50;54.60;;;;;;1832634;78;20186;-81
2020/12/13 07:59:53;;;;;;;;;;;31.50;55.00;;;;;;1833758;76;20538;-79
2020/12/13 08:02:33;;;;;;;;;;;31.40;55.30;;;;;;1824809;77;20143;-80
2020/12/13 08:05:11;;;;;;;;;;;31.40;55.80;;;;;;1836196;77;20182;-79
2020/12/13 08:07:46;;;;;;;;;;;31.30;56.20;;;;;;1829598;78;20187;-80
2020/12/13 08:10:23;;;;;;;;;;;31.30;57.10;;;;;;1740234;81;20252;-81
2020/12/13 08:13:13;;;;;;;;;;;31.30;57.20;;;;;;1780559;78;20235;-80
2020/12/13 08:15:52;;;;;;;;;;;31.20;55.50;;;;;;1783573;79;20415;-81
2020/12/13 08:18:24;;;;;;;;;;;31.10;57.30;;;;;;1735417;81;20326;-80
2020/12/13 08:21:20;;;;;;;;;;;31.10;57.20;;;;;;1793493;77;20192;-81
2020/12/13 08:23:32;;;;;;;;;;;31.10;57.30;;;;;;1793675;79;20131;-80
2020/12/13 08:26:06;;;;;;;;;;;31.00;56.60;;;;;;1797117;79;20283;-82
2020/12/13 08:29:01;;;;;;;;;;;31.10;55.90;;;;;;1795479;79;20240;-79
2020/12/13 08:31:41;;;;;;;;;;;31.10;55.60;;;;;;1799238;79;20472;-81
2020/12/13 08:34:12;;;;;;;;;;;31.30;56.40;;;;;;1802042;78;20549;-81
2020/12/13 08:36:44;;;;;;;;;;;31.30;55.90;;;;;;1797073;78;20184;-81
2020/12/13 08:39:15;;;;;;;;;;;31.30;56.20;;;;;;1800570;78;20178;-80
2020/12/13 08:41:46;;;;;;;;;;;31.30;55.70;;;;;;1802681;79;20209;-79
2020/12/13 08:44:18;;;;;;;;;;;31.30;56.40;;;;;;1823397;77;20531;-79
2020/12/13 08:46:52;;;;;;;;;;;31.30;57.10;;;;;;1814353;78;20196;-80
2020/12/13 08:49:23;;;;;;;;;;;31.20;57.10;;;;;;1801368;78;20206;-83
2020/12/13 08:51:53;;;;;;;;;;;31.20;57.50;;;;;;1804545;79;20304;-81
2020/12/13 08:54:29;;;;;;;;;;;31.10;57.60;;;;;;1811554;79;20167;-81
2020/12/13 08:57:02;;;;;;;;;;;31.10;57.20;;;;;;1826131;77;20266;-81
2020/12/13 08:59:36;;;;;;;;;;;31.00;56.50;;;;;;1843655;77;20216;-81
2020/12/13 09:02:06;;;;;;;;;;;31.00;57.10;;;;;;1838267;77;20498;-82
2020/12/13 09:04:43;;;;;;;;;;;30.90;57.30;;;;;;1832846;77;20225;-82
2020/12/13 09:07:14;;;;;;;;;;;30.90;57.40;;;;;;1838230;77;20182;-81
2020/12/13 09:10:02;;;;;;;;;;;30.90;57.50;;;;;;1838306;76;20194;-80
2020/12/13 09:12:33;;;;;;;;;;;30.80;57.70;;;;;;1866781;76;20212;-81
2020/12/13 09:15:05;;;;;;;;;;;30.80;57.40;;;;;;1857996;76;20192;-82
2020/12/13 09:17:34;;;;;;;;;;;30.80;57.20;;;;;;1865226;76;20140;-81
2020/12/13 09:20:06;;;;;;;;;;;30.90;57.30;;;;;;1855624;77;20168;-82
2020/12/13 09:22:36;;;;;;;;;;;30.90;57.80;;;;;;1877879;75;20215;-82
2020/12/13 09:25:08;;;;;;;;;;;30.80;57.70;;;;;;1882721;76;20432;-82
2020/12/13 09:27:37;;;;;;;;;;;30.80;57.80;;;;;;1834727;77;20228;-81
2020/12/13 09:30:07;;;;;;;;;;;30.90;57.70;;;;;;1877946;76;20163;-82
2020/12/13 09:32:37;;;;;;;;;;;30.90;57.90;;;;;;1882691;75;20234;-82
2020/12/13 09:35:40;;;;;;;;;;;30.80;58.10;;;;;;1866214;76;20254;-82
2020/12/13 09:37:46;;;;;;;;;;;30.80;57.60;;;;;;1849131;76;20244;-81
2020/12/13 09:40:13;;;;;;;;;;;30.80;57.80;;;;;;1871735;75;20195;-82
2020/12/13 09:42:43;;;;;;;;;;;30.80;57.80;;;;;;1875199;75;20186;-83
2020/12/13 09:45:14;;;;;;;;;;;30.80;57.80;;;;;;1859797;76;20193;-82
2020/12/13 09:47:44;;;;;;;;;;;30.80;56.70;;;;;;1862997;76;20475;-82
2020/12/13 09:50:23;;;;;;;;;;;30.80;57.60;;;;;;1855964;76;20150;-82
2020/12/13 09:52:56;;;;;;;;;;;30.70;57.60;;;;;;1864621;76;20206;-82
2020/12/13 09:55:27;;;;;;;;;;;30.70;57.60;;;;;;1848275;77;20484;-80
2020/12/13 09:57:57;;;;;;;;;;;30.60;57.50;;;;;;1867282;76;20170;-81
2020/12/13 10:00:27;;;;;;;;;;;30.60;58.00;;;;;;1864333;76;20175;-81
2020/12/13 10:02:56;;;;;;;;;;;30.60;57.90;;;;;;1865219;75;20600;-82
2020/12/13 10:10:30;;;;;;;;;;;30.50;58.20;;;;;;1859349;76;20185;-81
2020/12/13 10:13:00;;;;;;;;;;;30.40;58.30;;;;;;1863692;76;20200;-83
2020/12/13 10:15:30;;;;;;;;;;;30.40;58.40;;;;;;1861149;76;20217;-83
2020/12/13 10:18:00;;;;;;;;;;;30.30;58.40;;;;;;1847148;77;20174;-83
2020/12/13 10:20:30;;;;;;;;;;;30.30;58.40;;;;;;1850736;77;20245;-81
2020/12/13 10:23:00;;;;;;;;;;;30.20;58.50;;;;;;1853903;77;20480;-82
2020/12/13 10:25:30;;;;;;;;;;;30.20;58.70;;;;;;1855139;76;20161;-82
2020/12/13 10:28:05;;;;;;;;;;;30.20;58.50;;;;;;1852581;77;20613;-83
2020/12/13 10:30:35;;;;;;;;;;;30.20;58.60;;;;;;1851391;77;20622;-82
2020/12/13 10:33:06;;;;;;;;;;;30.20;58.70;;;;;;1845614;77;20222;-82
2020/12/13 10:36:05;;;;;;;;;;;;;;;;;;;;;
2020/12/13 10:38:44;;;;;;;;;;;30.10;58.90;;;;;;1852132;76;20274;-81
2020/12/13 10:41:14;;;;;;;;;;;30.10;59.10;;;;;;1849639;77;20631;-82
2020/12/13 10:43:47;;;;;;;;;;;30.00;59.10;;;;;;1845017;78;20418;-80
2020/12/13 10:46:26;;;;;;;;;;;30.00;59.00;;;;;;1802431;78;20638;-80
2020/12/13 10:49:02;;;;;;;;;;;29.90;59.20;;;;;;1828847;76;20204;-82
2020/12/13 10:51:55;;;;;;;;;;;29.90;59.40;;;;;;1874197;76;20215;-82
2020/12/13 10:54:31;;;;;;;;;;;29.90;59.50;;;;;;1732645;82;20299;-82
2020/12/13 10:57:00;;;;;;;;;;;29.90;59.70;;;;;;1801886;76;20218;-82
2020/12/13 10:59:30;;;;;;;;;;;29.80;59.70;;;;;;1877290;76;20210;-82
2020/12/13 11:02:00;;;;;;;;;;;29.80;59.90;;;;;;1891029;76;20269;-81
2020/12/13 11:04:34;;;;;;;;;;;29.70;60.00;;;;;;1874245;76;20163;-82
2020/12/13 11:07:05;;;;;;;;;;;29.70;60.10;;;;;;1859387;76;20270;-80
2020/12/13 11:09:35;;;;;;;;;;;29.70;60.30;;;;;;1853839;76;20235;-81
2020/12/13 11:12:05;;;;;;;;;;;29.70;60.50;;;;;;1854719;76;20278;-80
2020/12/13 11:14:36;;;;;;;;;;;29.60;60.60;;;;;;1850625;76;20269;-80
2020/12/13 11:17:13;;;;;;;;;;;29.50;60.70;;;;;;1830951;76;20298;-81
2020/12/13 11:22:40;;;;;;;;;;;29.50;61.60;;;;;;1863214;76;20207;-81
2020/12/13 11:25:10;;;;;;;;;;;29.50;61.60;;;;;;1861442;76;20192;-80
2020/12/13 11:27:40;;;;;;;;;;;29.40;62.20;;;;;;1860225;76;20375;-80
2020/12/13 11:30:11;;;;;;;;;;;29.40;61.90;;;;;;1857510;76;20258;-80
2020/12/13 11:32:43;;;;;;;;;;;29.30;62.00;;;;;;1858962;76;20180;-81
2020/12/13 11:35:13;;;;;;;;;;;29.30;62.10;;;;;;1853980;76;20205;-81
2020/12/13 11:37:43;;;;;;;;;;;29.30;62.20;;;;;;1852016;76;20771;-81
2020/12/13 11:40:13;;;;;;;;;;;29.30;62.30;;;;;;1861406;76;20206;-81
2020/12/13 11:42:43;;;;;;;;;;;29.30;62.90;;;;;;1802836;79;20138;-81
2020/12/13 11:45:14;;;;;;;;;;;29.30;63.30;;;;;;1800190;79;20479;-81
2020/12/13 11:47:44;;;;;;;;;;;29.20;63.40;;;;;;1809715;78;20161;-81
2020/12/13 11:50:14;;;;;;;;;;;29.10;63.40;;;;;;1815419;77;20220;-80
2020/12/13 11:52:44;;;;;;;;;;;29.20;63.30;;;;;;1809072;78;20572;-81
2020/12/13 11:55:14;;;;;;;;;;;29.10;63.20;;;;;;1846175;77;20239;-82
2020/12/13 11:57:44;;;;;;;;;;;29.10;63.20;;;;;;1846930;77;20205;-81
2020/12/13 12:00:15;;;;;;;;;;;29.10;63.20;;;;;;1846326;76;20187;-82
2020/12/13 12:02:46;;;;;;;;;;;29.10;63.40;;;;;;1845404;77;20153;-82
2020/12/13 12:05:17;;;;;;;;;;;29.10;63.50;;;;;;1848769;76;20160;-82
2020/12/13 12:07:47;;;;;;;;;;;29.10;63.50;;;;;;1842112;77;20198;-81
2020/12/13 12:10:17;;;;;;;;;;;29.00;63.70;;;;;;1848274;77;20259;-81
2020/12/13 12:12:48;;;;;;;;;;;29.00;63.60;;;;;;1846870;77;20234;-80
2020/12/13 12:15:17;;;;;;;;;;;29.00;63.50;;;;;;1845309;76;20259;-80
2020/12/13 12:17:47;;;;;;;;;;;29.00;63.70;;;;;;1862212;76;20442;-81
2020/12/13 12:20:19;;;;;;;;;;;29.00;64.10;;;;;;1862895;76;20480;-80
2020/12/13 12:22:48;;;;;;;;;;;28.90;64.10;;;;;;1861251;76;20172;-81
2020/12/13 12:25:19;;;;;;;;;;;28.90;64.40;;;;;;1862048;76;20175;-80
2020/12/13 12:27:49;;;;;;;;;;;28.80;64.10;;;;;;1865435;76;20253;-81
2020/12/13 12:30:19;;;;;;;;;;;28.90;64.10;;;;;;1797717;79;20145;-82
2020/12/13 12:32:49;;;;;;;;;;;28.90;63.90;;;;;;1818913;78;20184;-81
2020/12/13 12:35:19;;;;;;;;;;;28.80;64.20;;;;;;1803587;78;20162;-72
2020/12/13 12:37:49;;;;;;;;;;;28.80;64.10;;;;;;1813871;78;20139;-72
2020/12/13 12:40:19;;;;;;;;;;;28.80;63.60;;;;;;1848331;77;20942;-71
2020/12/13 12:42:50;;;;;;;;;;;28.80;63.70;;;;;;1842412;76;20175;-72
2020/12/13 12:45:20;;;;;;;;;;;28.80;64.00;;;;;;1843856;77;20198;-72
2020/12/13 12:47:50;;;;;;;;;;;28.80;64.10;;;;;;1838215;78;20411;-72
2020/12/13 12:50:20;;;;;;;;;;;28.80;64.50;;;;;;1855939;76;20467;-73
2020/12/13 12:52:50;;;;;;;;;;;28.70;64.50;;;;;;1816726;77;20318;-73
2020/12/13 12:55:20;;;;;;;;;;;28.80;64.70;;;;;;1813254;78;20196;-73
2020/12/13 12:57:50;;;;;;;;;;;28.70;64.70;;;;;;1810477;79;20252;-79
2020/12/13 13:00:32;;;;;;;;;;;28.70;64.90;;;;;;1803519;79;20180;-78
2020/12/13 13:02:55;;;;;;;;;;;28.70;65.10;;;;;;1819439;77;20571;-77
2020/12/13 13:05:31;;;;;;;;;;;28.70;65.20;;;;;;1811939;77;20238;-79
2020/12/13 13:07:54;;;;;;;;;;;28.70;65.50;;;;;;1802542;79;20480;-80
2020/12/13 13:10:28;;;;;;;;;;;28.70;65.60;;;;;;1819460;77;20624;-81
2020/12/13 13:12:56;;;;;;;;;;;28.70;65.70;;;;;;1819791;77;20208;-78
2020/12/13 13:15:38;;;;;;;;;;;28.70;65.80;;;;;;1797245;79;20523;-78
2020/12/13 13:18:00;;;;;;;;;;;28.60;65.80;;;;;;1777929;79;20226;-78
2020/12/13 13:20:30;;;;;;;;;;;28.60;66.00;;;;;;1765248;81;20380;-79
2020/12/13 13:23:00;;;;;;;;;;;28.60;66.20;;;;;;1803335;79;20482;-78
2020/12/13 13:25:33;;;;;;;;;;;28.60;66.30;;;;;;1805031;78;20526;-78
2020/12/13 13:28:03;;;;;;;;;;;28.50;66.20;;;;;;1809215;78;20169;-78
2020/12/13 13:30:41;;;;;;;;;;;28.50;66.40;;;;;;1824719;76;20206;-78
2020/12/13 13:33:10;;;;;;;;;;;28.50;66.30;;;;;;1818080;76;20194;-80
2020/12/13 13:35:42;;;;;;;;;;;28.50;66.40;;;;;;1825188;76;20205;-78
2020/12/13 13:38:14;;;;;;;;;;;28.50;66.30;;;;;;1814258;77;20178;-78
2020/12/13 13:40:44;;;;;;;;;;;28.50;66.30;;;;;;1825301;76;20175;-78
2020/12/13 13:43:25;;;;;;;;;;;28.40;66.20;;;;;;1828138;76;20366;-77
2020/12/13 13:51:02;;;;;;;;;;;28.40;66.80;;;;;;1808805;76;20162;-78
2020/12/13 13:53:34;;;;;;;;;;;28.40;67.90;;;;;;1824706;78;20133;-78
2020/12/13 13:56:31;;;;;;;;;;;28.40;67.10;;;;;;1828753;78;20332;-80
2020/12/13 13:59:02;;;;;;;;;;;28.40;67.20;;;;;;1791573;77;20308;-80
2020/12/13 14:01:33;;;;;;;;;;;28.30;66.90;;;;;;1811010;78;20201;-79
2020/12/13 14:04:04;;;;;;;;;;;28.30;66.90;;;;;;1823015;77;20238;-80
2020/12/13 14:09:05;;;;;;;;;;;28.30;67.00;;;;;;1821772;78;20219;-78
2020/12/13 14:11:35;;;;;;;;;;;28.30;67.10;;;;;;1818842;78;20178;-79
2020/12/13 14:14:05;;;;;;;;;;;28.30;67.00;;;;;;1808374;78;20194;-80
2020/12/13 14:16:35;;;;;;;;;;;28.30;67.00;;;;;;1785130;79;20175;-79
2020/12/13 14:19:05;;;;;;;;;;;28.20;67.00;;;;;;1825431;76;20446;-79
2020/12/13 14:21:42;;;;;;;;;;;28.20;67.00;;;;;;1851891;76;20165;-80
2020/12/13 14:24:12;;;;;;;;;;;28.20;67.30;;;;;;1856603;76;20200;-78
2020/12/13 14:26:47;;;;;;;;;;;28.20;67.30;;;;;;1794208;79;20270;-79
2020/12/13 14:29:20;;;;;;;;;;;28.20;68.40;;;;;;1849365;76;20234;-79
2020/12/13 14:31:52;;;;;;;;;;;28.20;67.60;;;;;;1848770;76;20565;-79
2020/12/13 14:34:22;;;;;;;;;;;28.20;67.50;;;;;;1857555;76;20188;-79
2020/12/13 14:36:52;;;;;;;;;;;28.20;67.70;;;;;;1844226;76;20226;-80
2020/12/13 14:39:22;;;;;;;;;;;28.20;67.60;;;;;;1850380;76;20263;-80
2020/12/13 14:41:59;;;;;;;;;;;28.20;67.90;;;;;;1808891;77;20210;-79
2020/12/13 14:44:27;;;;;;;;;;;28.10;67.80;;;;;;1788696;78;20227;-80
2020/12/13 14:46:56;;;;;;;;;;;28.20;68.20;;;;;;1847673;76;20250;-81
2020/12/13 14:49:28;;;;;;;;;;;28.10;68.60;;;;;;1854502;76;20207;-80
2020/12/13 14:51:59;;;;;;;;;;;28.10;68.50;;;;;;1855223;77;20154;-80
2020/12/13 14:54:29;;;;;;;;;;;28.10;68.20;;;;;;1859920;76;20428;-80
2020/12/13 14:57:05;;;;;;;;;;;28.10;68.10;;;;;;1858168;76;20258;-81
2020/12/13 14:59:32;;;;;;;;;;;28.10;68.20;;;;;;1843999;77;20496;-80
2020/12/13 15:02:02;;;;;;;;;;;28.10;68.20;;;;;;1854920;76;20163;-79